Weather at Azraq Highway Strip

Public forecast

Using degrees Celsius for public forecast. Weather courtesy of forecast.io.

Closest aviation weather report (METAR) to Azraq Highway Strip

Report is more than 6 hours old.

Closest report is Amman Civil (Marka International) Airport, 21.5 nm (39.8 km) W. Retrieved 2022/09/17 19:00 UTC (16 days ago):

OJAM 171900Z 00000KT 7000 NSC 26/14 Q1011 NOSIG

Closest aviation forecast (TAF) to Azraq Highway Strip

Forecast is more than 12 hours old.

Closest forecast is Amman Civil (Marka International) Airport, 21.5 nm (39.8 km) W. Retrieved 2022/09/17 18:15 UTC (17 days ago):

TAF OJAM 171700Z 1718/1824 29006KT 5000 HZ NSC PROB30 1802/1806 3000 HZ